Time;durP1;ratioP1;P1;durP2;ratioP2;P2;SDS_P1;SDS_P2;PMS_P1;PMS_P2;Temp;Humidity;BMP_temperature;BMP_pressure;BME280_temperature;BME280_humidity;BME280_pressure;Samples;Min_cycle;Max_cycle;Signal;HPM_P1;HPM_P2
2024/02/18 00:01:17;;;;;;;19.63;17.90;;;3.50;99.90;;;;;;4790048;29;20346;-48
2024/02/18 00:03:43;;;;;;;18.63;16.83;;;3.40;99.90;;;;;;4780705;29;20210;-46
2024/02/18 00:06:09;;;;;;;20.10;18.30;;;3.40;99.90;;;;;;4780104;29;20272;-45
2024/02/18 00:08:35;;;;;;;19.93;18.23;;;3.40;99.90;;;;;;4782508;29;20210;-51
2024/02/18 00:11:00;;;;;;;19.37;17.47;;;3.30;99.90;;;;;;4786697;29;20721;-46
2024/02/18 00:13:26;;;;;;;20.33;18.40;;;3.30;99.90;;;;;;4788448;29;20940;-47
2024/02/18 00:15:52;;;;;;;20.90;18.70;;;3.20;99.90;;;;;;4782380;29;20195;-47
2024/02/18 00:18:18;;;;;;;19.20;17.40;;;3.30;99.90;;;;;;4788150;29;20487;-45
2024/02/18 00:20:43;;;;;;;19.57;17.87;;;3.20;99.90;;;;;;4779620;29;20504;-46
2024/02/18 00:23:09;;;;;;;18.37;16.77;;;3.20;99.90;;;;;;4794642;29;20232;-51
2024/02/18 00:25:35;;;;;;;19.23;17.53;;;3.20;99.90;;;;;;4792896;29;20198;-51
2024/02/18 00:28:00;;;;;;;17.13;15.77;;;3.20;99.90;;;;;;4793482;29;20230;-50
2024/02/18 00:30:26;;;;;;;18.20;16.70;;;3.30;99.90;;;;;;4792681;29;20224;-46
2024/02/18 00:32:52;;;;;;;19.00;17.40;;;3.20;99.90;;;;;;4793838;29;20255;-47
2024/02/18 00:35:18;;;;;;;19.45;17.55;;;3.20;99.90;;;;;;4789358;29;20455;-46
2024/02/18 00:37:43;;;;;;;16.67;15.40;;;3.20;99.90;;;;;;4783373;29;20230;-47
2024/02/18 00:40:09;;;;;;;16.63;15.33;;;3.20;99.90;;;;;;4789074;29;20355;-49
2024/02/18 00:42:35;;;;;;;18.57;16.80;;;3.10;99.90;;;;;;4783760;29;20282;-51
2024/02/18 00:45:01;;;;;;;16.27;14.87;;;3.10;99.90;;;;;;4788523;29;20533;-53
2024/02/18 00:47:27;;;;;;;17.88;16.30;;;3.10;99.90;;;;;;4784691;29;20552;-48
2024/02/18 00:49:52;;;;;;;16.77;15.47;;;3.10;99.90;;;;;;4780233;29;20195;-49
2024/02/18 00:52:18;;;;;;;16.10;14.80;;;3.10;99.90;;;;;;4789716;29;20191;-46
2024/02/18 00:54:43;;;;;;;15.90;14.53;;;3.10;99.90;;;;;;4784602;29;20607;-46
2024/02/18 00:57:09;;;;;;;17.73;16.13;;;3.20;99.90;;;;;;4789817;29;20654;-50
2024/02/18 00:59:35;;;;;;;18.77;17.20;;;3.30;99.90;;;;;;4779391;29;20757;-52
2024/02/18 01:02:00;;;;;;;18.47;16.90;;;3.30;99.90;;;;;;4783141;29;20195;-53
2024/02/18 01:04:26;;;;;;;18.73;16.83;;;3.30;99.90;;;;;;4784075;29;20214;-48
2024/02/18 01:06:52;;;;;;;17.40;15.93;;;3.30;99.90;;;;;;4792235;29;20297;-53
2024/02/18 01:09:17;;;;;;;17.37;15.93;;;3.30;99.90;;;;;;4785157;29;20183;-49
2024/02/18 01:11:44;;;;;;;17.20;15.70;;;3.40;99.90;;;;;;4787683;29;20202;-50
2024/02/18 01:14:09;;;;;;;17.48;16.05;;;3.40;99.90;;;;;;4786674;29;20287;-55
2024/02/18 01:16:36;;;;;;;17.37;15.93;;;3.40;99.90;;;;;;4790254;29;20464;-59
2024/02/18 01:19:02;;;;;;;18.58;16.33;;;3.50;99.90;;;;;;4793560;29;20757;-52
2024/02/18 01:21:27;;;;;;;17.37;15.83;;;3.50;99.90;;;;;;4780613;29;20189;-48
2024/02/18 01:23:53;;;;;;;18.93;17.13;;;3.50;99.90;;;;;;4783308;29;20198;-53
2024/02/18 01:26:19;;;;;;;18.63;16.80;;;3.50;99.90;;;;;;4784332;29;20241;-51
2024/02/18 01:28:44;;;;;;;18.63;17.10;;;3.50;99.90;;;;;;4785150;29;20194;-53
2024/02/18 01:31:10;;;;;;;19.30;17.40;;;3.50;99.90;;;;;;4787074;29;20534;-55
2024/02/18 01:33:36;;;;;;;19.33;17.43;;;3.50;99.90;;;;;;4776911;29;20202;-54
2024/02/18 01:36:01;;;;;;;19.00;17.10;;;3.50;99.90;;;;;;4774457;29;20234;-51
2024/02/18 01:38:27;;;;;;;18.03;16.40;;;3.50;99.90;;;;;;4776428;29;20476;-55
2024/02/18 01:40:53;;;;;;;18.43;16.60;;;3.50;99.90;;;;;;4775227;29;20626;-50
2024/02/18 01:43:19;;;;;;;18.90;16.30;;;3.40;99.90;;;;;;4776098;29;20564;-56
2024/02/18 01:45:48;;;;;;;21.13;17.02;;;3.40;99.90;;;;;;4776464;29;20210;-52
2024/02/18 01:48:15;;;;;;;17.25;15.75;;;3.40;99.90;;;;;;4782498;29;20198;-50
2024/02/18 01:50:42;;;;;;;16.95;15.43;;;3.40;99.90;;;;;;4789943;29;20593;-51
2024/02/18 01:53:09;;;;;;;17.95;16.30;;;3.30;99.90;;;;;;4782862;29;20201;-54
2024/02/18 01:55:35;;;;;;;18.77;17.10;;;3.30;99.90;;;;;;4781395;29;20289;-49
2024/02/18 01:58:04;;;;;;;18.27;16.77;;;3.20;99.90;;;;;;4783263;29;20258;-55
2024/02/18 02:00:30;;;;;;;17.98;16.27;;;3.10;99.90;;;;;;4781372;29;20655;-52
2024/02/18 02:02:56;;;;;;;21.48;17.02;;;3.10;99.90;;;;;;4777769;29;20681;-55
2024/02/18 02:05:22;;;;;;;17.42;15.95;;;3.00;99.90;;;;;;4781091;29;20563;-54
2024/02/18 02:07:49;;;;;;;18.63;16.88;;;3.00;99.90;;;;;;4777811;29;20194;-50
2024/02/18 02:10:16;;;;;;;18.27;16.52;;;2.90;99.90;;;;;;4792243;29;20226;-51
2024/02/18 02:12:42;;;;;;;18.48;16.80;;;2.90;99.90;;;;;;4789615;29;20449;-52
2024/02/18 02:15:11;;;;;;;18.00;16.40;;;2.90;99.90;;;;;;4791751;29;20198;-52
2024/02/18 02:17:38;;;;;;;18.55;16.90;;;2.80;99.90;;;;;;4786780;29;21125;-49
2024/02/18 02:20:09;;;;;;;19.33;17.52;;;2.80;99.90;;;;;;4790557;29;20663;-53
2024/02/18 02:22:35;;;;;;;19.13;17.23;;;2.80;99.90;;;;;;4791531;29;20187;-50
2024/02/18 02:25:01;;;;;;;17.63;16.05;;;2.80;99.90;;;;;;4787811;29;20191;-55
2024/02/18 02:27:33;;;;;;;17.37;15.87;;;2.70;99.90;;;;;;4787972;29;20266;-52
2024/02/18 02:29:59;;;;;;;17.98;16.08;;;2.70;99.90;;;;;;4791021;29;20861;-55
2024/02/18 02:32:24;;;;;;;20.23;18.20;;;2.70;99.90;;;;;;4791852;29;20191;-54
2024/02/18 02:34:53;;;;;;;18.50;16.80;;;2.60;99.90;;;;;;4785316;29;20484;-53
2024/02/18 02:37:18;;;;;;;17.77;16.13;;;2.60;99.90;;;;;;4788068;29;20493;-56
2024/02/18 02:39:44;;;;;;;18.17;16.38;;;2.60;99.90;;;;;;4781414;29;20183;-54
2024/02/18 02:42:10;;;;;;;18.50;16.77;;;2.60;99.90;;;;;;4785782;29;20198;-54
2024/02/18 02:44:36;;;;;;;18.43;16.67;;;2.50;99.90;;;;;;4778284;29;20305;-50
2024/02/18 02:47:03;;;;;;;21.00;16.60;;;2.50;99.90;;;;;;4776114;29;20728;-53
2024/02/18 02:49:29;;;;;;;17.40;15.82;;;2.40;99.90;;;;;;4782752;29;20749;-57
2024/02/18 02:51:54;;;;;;;18.23;16.43;;;2.40;99.90;;;;;;4791561;29;20194;-50
2024/02/18 02:54:20;;;;;;;18.03;16.33;;;2.40;99.90;;;;;;4786740;29;20550;-52
2024/02/18 02:56:45;;;;;;;19.07;17.17;;;2.50;99.90;;;;;;4791215;29;20204;-55
2024/02/18 02:59:11;;;;;;;16.80;15.30;;;2.40;99.90;;;;;;4783832;29;20215;-54
2024/02/18 03:01:37;;;;;;;16.97;15.57;;;2.40;99.90;;;;;;4784121;29;20853;-52
2024/02/18 03:04:02;;;;;;;16.90;15.20;;;2.30;99.90;;;;;;4788898;29;20269;-51
2024/02/18 03:06:28;;;;;;;16.10;14.70;;;2.30;99.90;;;;;;4792797;29;20771;-54
2024/02/18 03:08:54;;;;;;;17.88;16.23;;;2.20;99.90;;;;;;4784547;29;20277;-55
2024/02/18 03:11:20;;;;;;;17.63;15.50;;;2.20;99.90;;;;;;4787303;29;20206;-54
2024/02/18 03:13:46;;;;;;;17.97;16.30;;;2.20;99.90;;;;;;4786200;29;20329;-52
2024/02/18 03:16:12;;;;;;;17.65;15.88;;;2.20;99.90;;;;;;4787251;29;20308;-53
2024/02/18 03:18:38;;;;;;;16.83;15.43;;;2.10;99.90;;;;;;4785839;29;20214;-50
2024/02/18 03:21:04;;;;;;;17.07;15.50;;;2.10;99.90;;;;;;4783057;29;20428;-53
2024/02/18 03:23:30;;;;;;;16.00;14.60;;;2.10;99.90;;;;;;4778621;29;20218;-55
2024/02/18 03:25:55;;;;;;;16.03;14.60;;;2.00;99.90;;;;;;4785234;29;21073;-50
2024/02/18 03:28:21;;;;;;;16.90;15.37;;;2.00;99.90;;;;;;4788444;29;20208;-53
2024/02/18 03:30:50;;;;;;;16.80;15.30;;;2.00;99.90;;;;;;4786393;29;20197;-55
2024/02/18 03:33:17;;;;;;;17.13;15.50;;;2.00;99.90;;;;;;4778177;29;20234;-55
2024/02/18 03:35:43;;;;;;;20.90;14.90;;;2.00;99.90;;;;;;4778094;29;20202;-53
2024/02/18 03:38:09;;;;;;;15.90;14.43;;;2.00;99.90;;;;;;4788194;29;20628;-54
2024/02/18 03:40:35;;;;;;;17.77;15.90;;;2.00;99.90;;;;;;4786642;29;20435;-55
2024/02/18 03:43:02;;;;;;;16.95;15.50;;;2.00;99.90;;;;;;4778444;29;20280;-52
2024/02/18 03:45:27;;;;;;;17.77;16.10;;;2.00;99.90;;;;;;4783172;29;20191;-49
2024/02/18 03:47:53;;;;;;;17.60;16.10;;;1.90;99.90;;;;;;4788719;29;20205;-54
2024/02/18 03:50:18;;;;;;;18.40;16.60;;;2.00;99.90;;;;;;4785230;29;20675;-53
2024/02/18 03:52:44;;;;;;;17.20;15.67;;;2.00;99.90;;;;;;4785885;29;20198;-52
2024/02/18 03:55:14;;;;;;;16.57;14.97;;;2.10;99.90;;;;;;4780562;29;20211;-52
2024/02/18 03:57:40;;;;;;;17.55;15.93;;;2.00;99.90;;;;;;4786041;29;20218;-52
2024/02/18 04:00:07;;;;;;;17.70;15.95;;;2.10;99.90;;;;;;4790352;29;20217;-52
2024/02/18 04:02:40;;;;;;;18.30;16.60;;;2.00;99.90;;;;;;4790539;29;20235;-49
2024/02/18 04:05:09;;;;;;;17.70;15.90;;;2.00;99.90;;;;;;4780088;29;20203;-53
2024/02/18 04:07:35;;;;;;;17.52;15.82;;;1.90;99.90;;;;;;4782158;29;20195;-53
2024/02/18 04:10:03;;;;;;;17.83;16.13;;;1.90;99.90;;;;;;4791383;29;20198;-50
2024/02/18 04:12:30;;;;;;;17.50;15.73;;;1.90;99.90;;;;;;4785079;29;20293;-56
2024/02/18 04:14:56;;;;;;;18.00;16.40;;;1.80;99.90;;;;;;4787180;29;20205;-54
2024/02/18 04:17:21;;;;;;;17.77;16.00;;;1.80;99.90;;;;;;4786785;29;20233;-51
2024/02/18 04:19:47;;;;;;;17.13;15.63;;;1.80;99.90;;;;;;4792698;29;20218;-49
2024/02/18 04:22:13;;;;;;;17.43;15.70;;;1.80;99.90;;;;;;4787989;29;20218;-51
2024/02/18 04:24:42;;;;;;;16.80;15.37;;;1.80;99.90;;;;;;4782005;29;20260;-57
2024/02/18 04:27:08;;;;;;;16.20;14.60;;;1.70;99.90;;;;;;4791083;29;20197;-52
2024/02/18 04:29:36;;;;;;;16.40;14.93;;;1.70;99.90;;;;;;4793585;29;20197;-53
2024/02/18 04:32:02;;;;;;;15.85;14.45;;;1.70;99.90;;;;;;4786489;29;20194;-54
2024/02/18 04:34:27;;;;;;;17.37;15.27;;;1.70;99.90;;;;;;4787934;29;20558;-54
2024/02/18 04:36:53;;;;;;;17.47;15.40;;;1.70;99.90;;;;;;4783964;29;20488;-52
2024/02/18 04:39:18;;;;;;;15.77;14.37;;;1.70;99.90;;;;;;4788768;29;20698;-54
2024/02/18 04:41:44;;;;;;;15.47;14.13;;;1.60;99.90;;;;;;4787579;29;20194;-52
2024/02/18 04:44:09;;;;;;;16.67;15.00;;;1.60;99.90;;;;;;4783915;29;20205;-53
2024/02/18 04:46:35;;;;;;;16.47;14.90;;;1.60;99.90;;;;;;4779925;29;20191;-54
2024/02/18 04:49:02;;;;;;;17.13;15.43;;;1.60;99.90;;;;;;4790854;29;20223;-54
2024/02/18 04:51:28;;;;;;;15.80;14.45;;;1.50;99.90;;;;;;4781878;29;20271;-53
2024/02/18 04:53:54;;;;;;;19.73;14.70;;;1.50;99.90;;;;;;4787092;29;20203;-52
2024/02/18 04:56:21;;;;;;;16.57;15.10;;;1.50;99.90;;;;;;4790686;29;20453;-53
2024/02/18 04:58:47;;;;;;;16.20;14.57;;;1.40;99.90;;;;;;4781912;29;20482;-51
2024/02/18 05:01:12;;;;;;;16.87;15.20;;;1.40;99.90;;;;;;4782178;29;20197;-50
2024/02/18 05:03:41;;;;;;;16.73;15.13;;;1.50;99.90;;;;;;4787295;29;20871;-50
2024/02/18 05:06:10;;;;;;;16.98;14.93;;;1.50;99.90;;;;;;4780539;29;20470;-54
2024/02/18 05:08:36;;;;;;;17.48;15.88;;;1.50;99.90;;;;;;4782249;29;20494;-53
2024/02/18 05:11:02;;;;;;;17.70;15.83;;;1.50;99.90;;;;;;4779087;29;20207;-52
2024/02/18 05:13:27;;;;;;;15.93;14.50;;;1.50;99.90;;;;;;4781764;29;20498;-53
2024/02/18 05:15:53;;;;;;;14.97;13.73;;;1.50;99.90;;;;;;4785173;29;20439;-54
2024/02/18 05:18:19;;;;;;;16.23;14.83;;;1.40;99.90;;;;;;4784481;29;20750;-48
2024/02/18 05:20:45;;;;;;;16.90;15.10;;;1.50;99.90;;;;;;4790875;29;20511;-51
2024/02/18 05:23:11;;;;;;;16.73;15.07;;;1.50;99.90;;;;;;4777229;29;20198;-54
2024/02/18 05:25:38;;;;;;;15.90;14.30;;;1.40;99.90;;;;;;4778220;29;20754;-53
2024/02/18 05:28:05;;;;;;;16.35;14.65;;;1.40;99.90;;;;;;4787486;29;20201;-55
2024/02/18 05:30:30;;;;;;;17.13;15.35;;;1.40;99.90;;;;;;4784015;29;20285;-52
2024/02/18 05:32:56;;;;;;;15.73;14.23;;;1.40;99.90;;;;;;4782198;29;20213;-52
2024/02/18 05:35:22;;;;;;;15.90;14.40;;;1.50;99.90;;;;;;4786893;29;20250;-48
2024/02/18 05:37:47;;;;;;;15.93;14.30;;;1.40;99.90;;;;;;4776947;29;20257;-55
2024/02/18 05:40:13;;;;;;;15.60;14.07;;;1.50;99.90;;;;;;4788056;29;20208;-55
2024/02/18 05:42:39;;;;;;;15.27;13.77;;;1.50;99.90;;;;;;4783905;29;20674;-54
2024/02/18 05:45:05;;;;;;;16.30;14.60;;;1.40;99.90;;;;;;4776898;29;20209;-53
2024/02/18 05:47:32;;;;;;;16.38;15.07;;;1.40;99.90;;;;;;4782220;29;20283;-59
2024/02/18 05:49:57;;;;;;;15.73;14.25;;;1.40;99.90;;;;;;4785303;29;20237;-58
2024/02/18 05:52:23;;;;;;;16.23;14.67;;;1.30;99.90;;;;;;4781057;29;20288;-54
2024/02/18 05:54:48;;;;;;;15.97;14.40;;;1.30;99.90;;;;;;4788542;29;20209;-56
2024/02/18 05:57:14;;;;;;;16.90;15.23;;;1.30;99.90;;;;;;4781992;29;20197;-54
2024/02/18 05:59:40;;;;;;;16.27;14.77;;;1.30;99.90;;;;;;4777680;29;20202;-52
2024/02/18 06:02:05;;;;;;;16.73;15.20;;;1.30;99.90;;;;;;4781605;29;20190;-56
2024/02/18 06:04:31;;;;;;;16.60;15.03;;;1.30;99.90;;;;;;4778587;29;20534;-53
2024/02/18 06:07:00;;;;;;;15.67;14.37;;;1.30;99.90;;;;;;4781880;29;20335;-48
2024/02/18 06:09:25;;;;;;;15.40;14.20;;;1.20;99.90;;;;;;4783743;29;20222;-56
2024/02/18 06:11:52;;;;;;;16.23;14.73;;;1.20;99.90;;;;;;4776631;29;20614;-54
2024/02/18 06:14:18;;;;;;;16.73;15.15;;;1.20;99.90;;;;;;4790707;29;20266;-55
2024/02/18 06:16:43;;;;;;;16.90;15.40;;;1.20;99.90;;;;;;4778562;29;20189;-54
2024/02/18 06:19:09;;;;;;;17.63;15.80;;;1.20;99.90;;;;;;4786244;29;20226;-52
2024/02/18 06:21:35;;;;;;;16.77;15.15;;;1.20;99.90;;;;;;4790013;29;20276;-53
2024/02/18 06:24:01;;;;;;;16.97;15.57;;;1.20;99.90;;;;;;4779827;29;20285;-49
2024/02/18 06:26:27;;;;;;;16.27;14.77;;;1.20;99.90;;;;;;4786544;29;20219;-52
2024/02/18 06:28:54;;;;;;;17.70;15.85;;;1.20;99.90;;;;;;4784678;29;20206;-53
2024/02/18 06:31:20;;;;;;;16.92;15.43;;;1.20;99.90;;;;;;4789254;29;20225;-51
2024/02/18 06:33:48;;;;;;;17.73;16.00;;;1.20;99.90;;;;;;4785589;29;20597;-47
2024/02/18 06:36:15;;;;;;;16.52;14.93;;;1.20;99.90;;;;;;4785056;29;20201;-52
2024/02/18 06:38:44;;;;;;;17.35;15.55;;;1.30;99.90;;;;;;4783454;29;20308;-50
2024/02/18 06:41:10;;;;;;;16.23;14.57;;;1.30;99.90;;;;;;4776487;29;20190;-53
2024/02/18 06:43:36;;;;;;;16.52;15.15;;;1.30;99.90;;;;;;4785909;29;20725;-49
2024/02/18 06:46:02;;;;;;;17.60;16.10;;;1.40;99.90;;;;;;4776774;29;20198;-50
2024/02/18 06:48:27;;;;;;;16.30;14.63;;;1.40;99.90;;;;;;4785652;29;20199;-52
2024/02/18 06:50:53;;;;;;;17.33;15.73;;;1.40;99.90;;;;;;4779761;29;20550;-51
2024/02/18 06:53:19;;;;;;;17.67;15.10;;;1.50;99.90;;;;;;4779109;29;20202;-49
2024/02/18 06:55:44;;;;;;;17.50;15.90;;;1.60;99.90;;;;;;4788770;29;20198;-53
2024/02/18 06:58:11;;;;;;;16.63;15.10;;;1.60;99.90;;;;;;4776291;29;20229;-52
2024/02/18 07:00:37;;;;;;;16.80;15.05;;;1.70;99.90;;;;;;4783834;29;20273;-53
2024/02/18 07:03:06;;;;;;;15.60;14.20;;;1.80;99.90;;;;;;4779866;29;20186;-50
2024/02/18 07:05:32;;;;;;;16.27;14.95;;;1.80;99.90;;;;;;4781867;29;20202;-50
2024/02/18 07:07:59;;;;;;;16.25;14.73;;;1.90;99.90;;;;;;4780067;29;20902;-50
2024/02/18 07:10:25;;;;;;;17.05;15.23;;;2.00;99.90;;;;;;4783245;29;20195;-53
2024/02/18 07:12:50;;;;;;;16.07;14.63;;;2.00;99.90;;;;;;4781440;29;20725;-53
2024/02/18 07:15:16;;;;;;;16.10;14.70;;;2.10;99.90;;;;;;4789012;29;20428;-52
2024/02/18 07:17:42;;;;;;;16.03;14.57;;;2.10;99.90;;;;;;4782918;29;20305;-52
2024/02/18 07:20:08;;;;;;;18.00;16.25;;;2.20;99.90;;;;;;4783112;29;20903;-49
2024/02/18 07:22:34;;;;;;;16.80;15.10;;;2.10;99.90;;;;;;4778700;29;20744;-52
2024/02/18 07:25:00;;;;;;;18.03;16.23;;;2.20;99.90;;;;;;4781640;29;20237;-49
2024/02/18 07:27:26;;;;;;;17.47;15.90;;;2.30;99.90;;;;;;4792594;29;20709;-49
2024/02/18 07:29:51;;;;;;;16.40;14.90;;;2.40;99.90;;;;;;4780478;29;20472;-50
2024/02/18 07:32:17;;;;;;;17.53;15.93;;;2.40;99.90;;;;;;4788131;29;20194;-51
2024/02/18 07:34:43;;;;;;;16.77;15.17;;;2.50;99.90;;;;;;4783737;29;20669;-54
2024/02/18 07:37:08;;;;;;;16.40;14.80;;;2.50;99.90;;;;;;4783242;29;20201;-53
2024/02/18 07:39:34;;;;;;;17.40;15.80;;;2.60;99.90;;;;;;4786693;29;20219;-51
2024/02/18 07:42:00;;;;;;;16.17;14.50;;;2.70;99.90;;;;;;4783100;29;20490;-53
2024/02/18 07:44:25;;;;;;;19.33;15.00;;;2.80;99.90;;;;;;4786248;29;20201;-48
2024/02/18 07:46:54;;;;;;;15.87;14.30;;;3.00;99.90;;;;;;4780921;29;20749;-54
2024/02/18 07:49:22;;;;;;;16.40;14.82;;;3.00;99.90;;;;;;4789950;29;20639;-52
2024/02/18 07:51:48;;;;;;;16.38;14.75;;;3.20;99.90;;;;;;4781248;29;20244;-50
2024/02/18 07:54:15;;;;;;;16.40;14.88;;;3.30;99.90;;;;;;4786849;29;20271;-50
2024/02/18 07:56:45;;;;;;;15.60;14.00;;;3.40;99.90;;;;;;4790076;29;20187;-54
2024/02/18 07:59:16;;;;;;;16.60;14.90;;;3.50;99.90;;;;;;4791288;29;20206;-51
2024/02/18 08:01:42;;;;;;;15.82;14.15;;;3.60;99.90;;;;;;4789128;29;20270;-50
2024/02/18 08:04:08;;;;;;;15.23;13.75;;;3.80;99.90;;;;;;4789734;29;20182;-53
2024/02/18 08:06:34;;;;;;;16.27;14.07;;;4.00;99.90;;;;;;4793328;29;20194;-51
2024/02/18 08:08:59;;;;;;;15.70;14.00;;;4.20;99.90;;;;;;4789001;29;20201;-48
2024/02/18 08:11:25;;;;;;;17.15;15.05;;;4.40;99.90;;;;;;4788521;29;20461;-55
2024/02/18 08:13:51;;;;;;;17.60;14.70;;;4.60;99.90;;;;;;4786074;29;21577;-50
2024/02/18 08:16:19;;;;;;;15.77;14.17;;;4.80;99.90;;;;;;4777735;29;20195;-53
2024/02/18 08:18:45;;;;;;;18.17;15.43;;;5.00;99.90;;;;;;4783777;29;20599;-54
2024/02/18 08:21:11;;;;;;;16.43;14.93;;;5.10;99.90;;;;;;4792667;29;20194;-52
2024/02/18 08:23:37;;;;;;;17.13;14.83;;;5.30;99.90;;;;;;4786143;29;20527;-52
2024/02/18 08:26:03;;;;;;;18.70;14.75;;;5.30;99.90;;;;;;4790809;29;20278;-53
2024/02/18 08:28:28;;;;;;;15.20;13.70;;;5.40;99.90;;;;;;4788209;29;20771;-55
2024/02/18 08:30:55;;;;;;;18.07;16.43;;;5.40;99.90;;;;;;4779508;29;20376;-53
2024/02/18 08:33:21;;;;;;;16.98;15.55;;;5.60;99.90;;;;;;4785810;29;20191;-54
2024/02/18 08:35:47;;;;;;;18.63;16.90;;;5.50;99.90;;;;;;4779627;29;20262;-56
2024/02/18 08:38:12;;;;;;;18.50;16.77;;;5.50;99.90;;;;;;4782484;29;20231;-55
2024/02/18 08:40:38;;;;;;;16.93;15.23;;;5.70;99.90;;;;;;4786956;29;21030;-53
2024/02/18 08:43:03;;;;;;;20.27;18.37;;;5.80;99.90;;;;;;4784451;29;20199;-53
2024/02/18 08:45:30;;;;;;;20.33;18.00;;;5.80;99.90;;;;;;4776354;29;20194;-51
2024/02/18 08:47:56;;;;;;;20.27;18.40;;;5.90;99.90;;;;;;4776951;29;20537;-53
2024/02/18 08:50:21;;;;;;;19.20;17.60;;;6.00;99.90;;;;;;4782730;29;20435;-54
2024/02/18 08:53:00;;;;;;;20.33;18.63;;;6.30;99.90;;;;;;4780719;29;20444;-55
2024/02/18 08:55:25;;;;;;;21.00;18.97;;;6.70;99.90;;;;;;4787102;29;20863;-49
2024/02/18 08:57:51;;;;;;;19.23;17.60;;;7.10;99.80;;;;;;4792225;29;20591;-54
2024/02/18 09:00:19;;;;;;;18.40;17.00;;;7.60;94.90;;;;;;4778284;29;20195;-55
2024/02/18 09:02:45;;;;;;;18.70;16.90;;;8.10;53.70;;;;;;4778512;29;20237;-53
2024/02/18 09:05:10;;;;;;;16.60;14.73;;;8.80;23.70;;;;;;4778537;29;20444;-56
2024/02/18 09:07:36;;;;;;;15.90;14.67;;;9.40;1.00;;;;;;4777907;29;20441;-56
2024/02/18 09:10:02;;;;;;;14.87;13.87;;;9.90;1.00;;;;;;4778255;29;20202;-56
2024/02/18 09:12:28;;;;;;;14.20;13.20;;;10.30;1.00;;;;;;4794699;29;20205;-57
2024/02/18 09:14:54;;;;;;;13.97;12.87;;;10.60;1.00;;;;;;4793755;29;21337;-54
2024/02/18 09:17:19;;;;;;;13.70;12.60;;;11.00;1.00;;;;;;4784878;29;20227;-54
2024/02/18 09:19:46;;;;;;;14.27;13.20;;;11.40;1.00;;;;;;4783341;29;20776;-55
2024/02/18 09:22:12;;;;;;;14.37;13.27;;;11.70;1.00;;;;;;4789651;29;20233;-55
2024/02/18 09:24:38;;;;;;;12.77;11.77;;;11.80;99.90;;;;;;4784597;29;20429;-55
2024/02/18 09:27:06;;;;;;;14.47;13.37;;;12.00;99.90;;;;;;4779063;29;21021;-55
2024/02/18 09:29:32;;;;;;;14.40;13.40;;;12.20;99.90;;;;;;4785870;29;20219;-53
2024/02/18 09:31:57;;;;;;;13.87;12.97;;;12.20;99.90;;;;;;4778576;29;20463;-48
2024/02/18 09:34:23;;;;;;;14.70;13.50;;;12.30;99.90;;;;;;4782912;29;20198;-48
2024/02/18 09:36:48;;;;;;;13.73;12.80;;;12.30;82.40;;;;;;4783714;29;20194;-47
2024/02/18 09:39:14;;;;;;;14.03;12.93;;;12.20;94.40;;;;;;4793495;29;20215;-47
2024/02/18 09:41:45;;;;;;;14.10;13.17;;;12.00;99.90;;;;;;4786275;29;20960;-50
2024/02/18 09:44:12;;;;;;;14.70;13.30;;;12.40;99.90;;;;;;4780258;29;20205;-46
2024/02/18 09:46:39;;;;;;;15.10;14.00;;;12.50;99.90;;;;;;4792341;29;20428;-51
2024/02/18 09:49:06;;;;;;;14.87;13.70;;;12.60;74.00;;;;;;4786295;29;20443;-44
2024/02/18 09:51:35;;;;;;;14.60;13.60;;;12.80;80.90;;;;;;4777551;29;20425;-50
2024/02/18 09:54:06;;;;;;;14.80;13.70;;;13.20;40.90;;;;;;4788908;29;20437;-48
2024/02/18 09:56:33;;;;;;;14.87;13.87;;;13.30;1.00;;;;;;4783879;29;20452;-46
2024/02/18 09:58:59;;;;;;;14.40;13.30;;;13.90;1.00;;;;;;4780244;29;20484;-49
2024/02/18 10:01:25;;;;;;;14.20;13.20;;;14.40;1.00;;;;;;4780971;29;20444;-46
2024/02/18 10:03:51;;;;;;;14.00;13.10;;;15.10;1.00;;;;;;4781248;29;20425;-49
2024/02/18 10:06:17;;;;;;;14.37;13.47;;;15.30;1.00;;;;;;4786171;29;20416;-50
2024/02/18 10:08:51;;;;;;;13.07;12.27;;;15.30;1.00;;;;;;4784598;29;20459;-52
2024/02/18 10:11:20;;;;;;;15.60;14.60;;;15.50;1.00;;;;;;4788065;29;20557;-48
2024/02/18 10:13:51;;;;;;;13.57;12.67;;;15.70;1.00;;;;;;4785248;29;20545;-48
2024/02/18 10:16:17;;;;;;;13.27;12.37;;;15.80;1.00;;;;;;4787716;29;20436;-50
2024/02/18 10:18:47;;;;;;;14.17;13.30;;;16.10;1.00;;;;;;4786086;29;20553;-49
2024/02/18 10:21:14;;;;;;;13.63;12.83;;;16.50;1.00;;;;;;4778010;29;20187;-49
2024/02/18 10:23:41;;;;;;;14.27;13.37;;;16.30;1.00;;;;;;4786259;29;20433;-53
2024/02/18 10:26:08;;;;;;;14.80;13.60;;;16.50;1.00;;;;;;4778625;29;20829;-49
2024/02/18 10:28:35;;;;;;;13.70;12.90;;;16.10;1.00;;;;;;4787357;29;20444;-53
2024/02/18 10:31:10;;;;;;;14.20;13.30;;;16.10;1.00;;;;;;4781960;29;20436;-48
2024/02/18 10:33:36;;;;;;;13.90;13.00;;;15.90;1.00;;;;;;4788449;29;20451;-51
2024/02/18 10:36:13;;;;;;;14.07;12.87;;;15.60;1.00;;;;;;4790977;29;20428;-59
2024/02/18 10:38:46;;;;;;;13.73;12.83;;;15.20;1.00;;;;;;4791442;29;20590;-57
2024/02/18 10:41:17;;;;;;;14.37;13.27;;;14.90;1.00;;;;;;4783136;29;20459;-59
2024/02/18 10:43:49;;;;;;;13.93;13.13;;;14.80;1.00;;;;;;4782691;29;20466;-58
2024/02/18 10:46:20;;;;;;;14.47;13.50;;;14.70;1.00;;;;;;4784679;29;20428;-59
2024/02/18 10:48:53;;;;;;;14.23;13.13;;;14.70;1.00;;;;;;4787783;29;20456;-58
2024/02/18 10:51:43;;;;;;;13.80;13.00;;;14.80;1.00;;;;;;4790694;29;20482;-57
2024/02/18 10:54:19;;;;;;;14.17;13.00;;;15.30;1.00;;;;;;4788428;29;20944;-61
2024/02/18 10:56:46;;;;;;;14.13;13.13;;;15.80;1.00;;;;;;4782340;29;20452;-62
2024/02/18 10:59:27;;;;;;;13.20;12.27;;;16.50;1.00;;;;;;4787136;29;20489;-62
2024/02/18 11:02:00;;;;;;;13.73;12.97;;;17.30;1.00;;;;;;4787554;29;20429;-61
2024/02/18 11:04:26;;;;;;;14.70;13.80;;;17.70;1.00;;;;;;4783248;29;20991;-60
2024/02/18 11:06:54;;;;;;;13.10;12.40;;;18.00;1.00;;;;;;4786531;29;21322;-59
2024/02/18 11:09:21;;;;;;;13.33;12.43;;;18.20;1.00;;;;;;4782221;29;20440;-61
2024/02/18 11:11:48;;;;;;;12.73;11.93;;;18.20;1.00;;;;;;4784376;29;20473;-59
2024/02/18 11:14:15;;;;;;;13.10;12.30;;;18.40;1.00;;;;;;4783277;29;20486;-61
2024/02/18 11:16:45;;;;;;;12.47;11.77;;;18.50;99.90;;;;;;4788665;29;20454;-61
2024/02/18 11:19:12;;;;;;;12.93;12.07;;;19.10;99.90;;;;;;4783305;29;20990;-61
2024/02/18 11:21:41;;;;;;;12.80;12.10;;;18.70;99.90;;;;;;4791358;29;20417;-58
2024/02/18 11:24:07;;;;;;;12.20;11.40;;;19.00;99.90;;;;;;4783319;29;21341;-59
2024/02/18 11:26:33;;;;;;;13.20;12.20;;;19.20;99.90;;;;;;4784520;29;20194;-59
2024/02/18 11:29:01;;;;;;;12.50;11.80;;;19.50;99.90;;;;;;4785647;29;20443;-61
2024/02/18 11:31:29;;;;;;;13.50;12.70;;;19.80;99.90;;;;;;4782092;29;20452;-61
2024/02/18 11:33:56;;;;;;;13.10;12.40;;;19.60;99.90;;;;;;4782088;29;20467;-59
2024/02/18 11:36:24;;;;;;;13.33;12.63;;;19.20;99.90;;;;;;4788615;29;21057;-61
2024/02/18 11:38:53;;;;;;;13.27;12.47;;;19.30;99.90;;;;;;4776280;29;20534;-60
2024/02/18 11:41:23;;;;;;;13.60;12.90;;;19.50;99.90;;;;;;4787995;29;20429;-61
2024/02/18 11:44:00;;;;;;;13.20;12.40;;;19.60;99.90;;;;;;4779711;29;20508;-61
2024/02/18 11:46:29;;;;;;;12.90;12.10;;;19.60;99.90;;;;;;4783034;29;20639;-59
2024/02/18 11:48:56;;;;;;;13.17;12.40;;;19.40;99.90;;;;;;4787561;29;20424;-60
2024/02/18 11:51:22;;;;;;;13.70;13.00;;;19.20;99.90;;;;;;4791144;29;20535;-54
2024/02/18 11:53:48;;;;;;;12.00;11.37;;;19.00;99.90;;;;;;4781965;29;21546;-55
2024/02/18 11:56:14;;;;;;;12.77;12.07;;;18.60;99.90;;;;;;4789416;29;20450;-56
2024/02/18 11:58:41;;;;;;;12.90;12.30;;;18.20;99.90;;;;;;4779926;29;20467;-52
2024/02/18 12:01:07;;;;;;;12.83;12.13;;;18.10;99.90;;;;;;4782139;29;20420;-52
2024/02/18 12:03:33;;;;;;;11.40;10.80;;;18.20;99.90;;;;;;4780314;29;20590;-51
2024/02/18 12:06:00;;;;;;;13.20;12.50;;;18.60;99.90;;;;;;4785891;29;20448;-52
2024/02/18 12:08:28;;;;;;;11.93;11.17;;;18.70;99.90;;;;;;4790062;29;20681;-56
2024/02/18 12:10:53;;;;;;;12.93;12.03;;;18.80;99.90;;;;;;4786557;29;20433;-52
2024/02/18 12:13:22;;;;;;;11.23;10.63;;;18.50;99.90;;;;;;4780178;29;20497;-55
2024/02/18 12:15:49;;;;;;;12.40;11.80;;;18.30;99.90;;;;;;4791182;29;20214;-52
2024/02/18 12:18:16;;;;;;;11.73;11.13;;;17.80;99.90;;;;;;4782551;29;20543;-53
2024/02/18 12:20:47;;;;;;;12.63;12.03;;;17.50;99.90;;;;;;4788686;29;20804;-50
2024/02/18 12:23:14;;;;;;;13.23;12.57;;;17.50;99.90;;;;;;4792733;29;20787;-49
2024/02/18 12:25:40;;;;;;;12.30;11.60;;;17.40;99.90;;;;;;4786800;29;20448;-56
2024/02/18 12:28:08;;;;;;;12.50;11.80;;;17.40;99.90;;;;;;4779544;29;20492;-52
2024/02/18 12:30:34;;;;;;;12.80;12.10;;;17.80;99.90;;;;;;4777649;29;20195;-50
2024/02/18 12:33:14;;;;;;;12.97;12.20;;;18.20;99.90;;;;;;4779923;29;20428;-49